Terminal Aerodrome Forecast
Issued by NWS

Home | Current Version | Previous Version | Text Only | Print | Product List | Glossary On
Versions: 1 2 3 4 5 6 7 8 9 10 11 12 13 14
673
FTAK31 PAJN 280401 AAA
TAFAGY
TAF AMD
PAGY 280401Z 2804/2824 21004KT P6SM BKN100
     FM281200 04004KT P6SM BKN070
     FM281700 21005KT P6SM BKN070
     FM282000 21015KT P6SM BKN070
      AMD LTD TO CLD VIS AND WIND=

USA.gov is the U.S. government's official web portal to all federal, state and local government web resources and services.